createdAt,value
2022-08-03T00:02:16.892Z,97840.34
2022-08-03T00:04:44.111Z,97842.94
2022-08-03T00:07:11.090Z,97839.13
2022-08-03T00:09:38.179Z,97834.13
2022-08-03T00:12:05.996Z,97840.84
2022-08-03T00:14:33.073Z,97843.31
2022-08-03T00:17:01.568Z,97839.66
2022-08-03T00:19:28.648Z,97838.38
2022-08-03T00:21:55.696Z,97833.56
2022-08-03T00:24:22.745Z,97838.75
2022-08-03T00:26:49.695Z,97832.81
2022-08-03T00:29:16.725Z,97837.00
2022-08-03T00:31:52.218Z,97829.34
2022-08-03T00:34:57.199Z,97834.69
2022-08-03T00:37:16.462Z,97832.41
2022-08-03T00:39:46.011Z,97827.25
2022-08-03T00:42:13.625Z,97832.09
2022-08-03T00:44:41.198Z,97831.81
2022-08-03T00:47:10.459Z,97833.44
2022-08-03T00:49:39.463Z,97825.09
2022-08-03T00:52:18.155Z,97832.69
2022-08-03T00:54:45.450Z,97828.81
2022-08-03T00:57:12.741Z,97833.63
2022-08-03T00:59:39.795Z,97834.13
2022-08-03T01:02:06.864Z,97833.19
2022-08-03T01:04:33.952Z,97837.38
2022-08-03T01:07:12.297Z,97829.69
2022-08-03T01:09:47.910Z,97833.81
2022-08-03T01:12:22.816Z,97829.81
2022-08-03T01:14:55.643Z,97829.03
2022-08-03T01:17:33.666Z,97823.09
2022-08-03T01:20:06.732Z,97823.44
2022-08-03T01:23:03.861Z,97826.78
2022-08-03T01:25:41.462Z,97831.31
2022-08-03T01:28:28.897Z,97831.66
2022-08-03T01:31:03.921Z,97818.84
2022-08-03T01:33:37.271Z,97828.63
2022-08-03T01:36:07.865Z,97823.16
2022-08-03T01:38:41.010Z,97823.16
2022-08-03T01:41:12.027Z,97825.09
2022-08-03T01:44:27.324Z,97821.09
2022-08-03T01:46:32.488Z,97825.13
2022-08-03T01:49:01.628Z,97820.97
2022-08-03T01:51:56.685Z,97813.41
2022-08-03T01:54:26.124Z,97816.16
2022-08-03T01:56:54.491Z,97823.72
2022-08-03T01:59:23.289Z,97821.78
2022-08-03T02:02:31.987Z,97819.38
2022-08-03T02:04:42.585Z,97817.47
2022-08-03T02:07:10.585Z,97816.19
2022-08-03T02:09:40.252Z,97816.19
2022-08-03T02:12:09.466Z,97816.81
2022-08-03T02:14:39.257Z,97808.00
2022-08-03T02:17:09.834Z,97810.72
2022-08-03T02:19:37.824Z,97816.50
2022-08-03T02:22:08.517Z,97821.31
2022-08-03T02:24:35.431Z,97811.88
2022-08-03T02:27:07.980Z,97817.16
2022-08-03T02:29:40.189Z,97806.25
2022-08-03T02:32:14.635Z,97803.88
2022-08-03T02:34:45.917Z,97809.97
2022-08-03T02:37:13.644Z,97808.34
2022-08-03T02:39:43.032Z,97806.75
2022-08-03T02:42:12.815Z,97812.53
2022-08-03T02:44:43.821Z,97813.19
2022-08-03T02:47:13.655Z,97806.13
2022-08-03T02:49:50.614Z,97802.28
2022-08-03T02:52:21.730Z,97801.47
2022-08-03T02:54:51.207Z,97808.69
2022-08-03T02:57:20.179Z,97806.59
2022-08-03T02:59:47.841Z,97797.78
2022-08-03T03:02:17.800Z,97804.97
2022-08-03T03:05:50.715Z,97808.66
2022-08-03T03:07:34.631Z,97804.66
2022-08-03T03:10:19.035Z,97806.25
2022-08-03T03:12:47.067Z,97801.44
2022-08-03T03:15:14.064Z,97804.47
2022-08-03T03:17:44.233Z,97806.88
2022-08-03T03:20:12.091Z,97803.66
2022-08-03T03:22:40.131Z,97804.81
2022-08-03T03:25:12.399Z,97800.47
2022-08-03T03:27:40.079Z,97804.31
2022-08-03T03:30:08.321Z,97809.59
2022-08-03T03:32:37.002Z,97798.53
2022-08-03T03:35:06.903Z,97804.00
2022-08-03T03:37:33.780Z,97802.53
2022-08-03T03:40:00.636Z,97798.38
2022-08-03T03:42:27.694Z,97803.81
2022-08-03T03:44:54.815Z,97805.09
2022-08-03T03:47:32.569Z,97806.72
2022-08-03T03:50:00.209Z,97803.81
2022-08-03T03:52:28.594Z,97811.66
2022-08-03T03:55:00.659Z,97812.00
2022-08-03T03:57:28.220Z,97808.94
2022-08-03T03:59:55.086Z,97809.44
2022-08-03T04:02:21.994Z,97804.28
2022-08-03T04:05:07.301Z,97804.78
2022-08-03T04:08:05.463Z,97810.22
2022-08-03T04:10:54.410Z,97810.72
2022-08-03T04:13:22.180Z,97806.56
2022-08-03T04:15:50.692Z,97801.44
2022-08-03T04:18:19.161Z,97803.66
2022-08-03T04:20:48.948Z,97801.25
2022-08-03T04:23:21.289Z,97804.63
2022-08-03T04:25:51.733Z,97796.13
2022-08-03T04:28:21.084Z,97803.50
2022-08-03T04:30:57.950Z,97798.22
2022-08-03T04:33:29.387Z,97800.16
2022-08-03T04:36:02.921Z,97803.34
2022-08-03T04:38:33.163Z,97810.72
2022-08-03T04:41:01.160Z,97809.44
2022-08-03T04:43:28.474Z,97808.81
2022-08-03T04:45:57.041Z,97810.25
2022-08-03T04:48:24.597Z,97813.97
2022-08-03T04:50:52.169Z,97818.63
2022-08-03T04:53:19.609Z,97812.38
2022-08-03T04:55:48.135Z,97813.66
2022-08-03T04:58:15.048Z,97817.00
2022-08-03T05:00:43.019Z,97811.22
2022-08-03T05:03:23.720Z,97819.06
2022-08-03T05:05:51.673Z,97816.78
2022-08-03T05:08:20.540Z,97818.06
2022-08-03T05:10:58.912Z,97829.63
2022-08-03T05:13:26.447Z,97825.72
2022-08-03T05:15:53.621Z,97829.22
2022-08-03T05:18:20.580Z,97828.91
2022-08-03T05:20:47.523Z,97824.34
2022-08-03T05:23:14.470Z,97829.78
2022-08-03T05:25:49.639Z,97827.13
2022-08-03T05:28:18.571Z,97824.47
2022-08-03T05:30:45.624Z,97827.97
2022-08-03T05:33:12.627Z,97825.63
2022-08-03T05:36:00.434Z,97828.78
2022-08-03T05:38:28.460Z,97826.94
2022-08-03T05:41:21.270Z,97822.97
2022-08-03T05:43:45.696Z,97823.88
2022-08-03T05:46:13.372Z,97823.78
2022-08-03T05:48:40.391Z,97826.09
2022-08-03T05:51:11.659Z,97827.91
2022-08-03T05:53:39.208Z,97832.03
2022-08-03T05:56:13.874Z,97827.94
2022-08-03T05:58:43.157Z,97831.00
2022-08-03T06:01:11.680Z,97837.84
2022-08-03T06:03:38.698Z,97836.34
2022-08-03T06:06:05.864Z,97839.09
2022-08-03T06:08:33.054Z,97835.19
2022-08-03T06:11:00.144Z,97835.06
2022-08-03T06:13:27.084Z,97835.84
2022-08-03T06:15:54.062Z,97837.44
2022-08-03T06:18:24.122Z,97836.59
2022-08-03T06:20:51.257Z,97839.97
2022-08-03T06:23:19.408Z,97840.84
2022-08-03T06:25:46.843Z,97845.47
2022-08-03T06:28:42.501Z,97836.00
2022-08-03T06:31:01.626Z,97832.72
2022-08-03T06:34:30.987Z,97832.25
2022-08-03T06:36:17.132Z,97834.22
2022-08-03T06:38:44.094Z,97839.00
2022-08-03T06:41:11.026Z,97834.69
2022-08-03T06:44:02.602Z,97838.97
2022-08-03T06:46:25.990Z,97844.88
2022-08-03T06:48:56.161Z,97838.00
2022-08-03T06:52:03.742Z,97833.97
2022-08-03T06:54:11.027Z,97843.06
2022-08-03T06:56:38.055Z,97844.03
2022-08-03T06:59:05.651Z,97839.66
2022-08-03T07:01:32.990Z,97839.91
2022-08-03T07:04:01.982Z,97846.25
2022-08-03T07:06:29.051Z,97843.38
2022-08-03T07:08:59.580Z,97843.25
2022-08-03T07:11:27.009Z,97841.97
2022-08-03T07:13:54.080Z,97847.06
2022-08-03T07:16:21.242Z,97842.69
2022-08-03T07:18:48.298Z,97841.69
2022-08-03T07:21:17.412Z,97841.69
2022-08-03T07:23:44.333Z,97850.56
2022-08-03T07:26:11.781Z,97849.09
2022-08-03T07:28:38.877Z,97844.50
2022-08-03T07:31:05.867Z,97847.91
2022-08-03T07:33:32.892Z,97846.88
2022-08-03T07:36:00.101Z,97849.81
2022-08-03T07:38:30.043Z,97852.34
2022-08-03T07:40:57.379Z,97844.94
2022-08-03T07:43:24.868Z,97849.13
2022-08-03T07:45:51.826Z,97847.75
2022-08-03T07:48:18.858Z,97844.25
2022-08-03T07:50:46.358Z,97841.19
2022-08-03T07:53:14.681Z,97842.47
2022-08-03T07:55:43.069Z,97839.81
2022-08-03T07:58:21.998Z,97842.59
2022-08-03T08:00:53.159Z,97842.19
2022-08-03T08:03:21.974Z,97841.38
2022-08-03T08:05:49.843Z,97839.75
2022-08-03T08:08:16.823Z,97837.69
2022-08-03T08:10:56.893Z,97833.72
2022-08-03T08:13:26.619Z,97826.16
2022-08-03T08:15:53.667Z,97828.44
2022-08-03T08:18:20.739Z,97824.13
2022-08-03T08:20:48.010Z,97821.66
2022-08-03T08:23:42.108Z,97822.03
2022-08-03T08:26:03.586Z,97819.56
2022-08-03T08:28:33.665Z,97819.06
2022-08-03T08:31:01.113Z,97820.59
2022-08-03T08:33:42.501Z,97816.22
2022-08-03T08:36:15.855Z,97826.22
2022-08-03T08:38:44.633Z,97819.44
2022-08-03T08:41:15.763Z,97818.56
2022-08-03T08:43:43.607Z,97818.06
2022-08-03T08:46:13.251Z,97815.91
2022-08-03T08:48:51.814Z,97813.34
2022-08-03T08:51:20.837Z,97810.78
2022-08-03T08:53:52.179Z,97817.41
2022-08-03T08:56:22.971Z,97815.63
2022-08-03T08:58:54.571Z,97813.09
2022-08-03T09:01:22.132Z,97813.09
2022-08-03T09:03:49.604Z,97807.38
2022-08-03T09:06:17.099Z,97807.13
2022-08-03T09:08:44.865Z,97813.84
2022-08-03T09:11:13.003Z,97813.19
2022-08-03T09:13:42.123Z,97818.50
2022-08-03T09:16:12.372Z,97821.00
2022-08-03T09:18:40.289Z,97811.97
2022-08-03T09:21:30.729Z,97813.31
2022-08-03T09:24:03.650Z,97822.34
2022-08-03T09:26:33.575Z,97822.97
2022-08-03T09:29:07.117Z,97823.28
2022-08-03T09:31:39.316Z,97817.53
2022-08-03T09:34:12.506Z,97816.00
2022-08-03T09:36:43.618Z,97811.81
2022-08-03T09:39:12.506Z,97811.88
2022-08-03T09:41:42.579Z,97817.44
2022-08-03T09:44:24.618Z,97814.09
2022-08-03T09:46:53.908Z,97812.84
2022-08-03T09:49:21.418Z,97810.53
2022-08-03T09:52:32.823Z,97809.94
2022-08-03T09:54:36.141Z,97802.13
2022-08-03T09:57:03.677Z,97803.47
2022-08-03T09:59:33.710Z,97805.28
2022-08-03T10:02:01.848Z,97798.75
2022-08-03T10:04:29.277Z,97796.78
2022-08-03T10:07:05.485Z,97799.00
2022-08-03T10:09:32.440Z,97789.47
2022-08-03T10:12:08.140Z,97794.38
2022-08-03T10:14:38.497Z,97795.53
2022-08-03T10:17:06.056Z,97794.63
2022-08-03T10:19:33.464Z,97783.63
2022-08-03T10:22:04.713Z,97791.16
2022-08-03T10:24:36.473Z,97775.44
2022-08-03T10:27:07.125Z,97779.06
2022-08-03T10:29:43.716Z,97784.34
2022-08-03T10:32:15.990Z,97784.16
2022-08-03T10:34:45.121Z,97786.91
2022-08-03T10:37:14.242Z,97779.84
2022-08-03T10:39:53.591Z,97770.69
2022-08-03T10:42:26.317Z,97776.19
2022-08-03T10:45:03.744Z,97774.19
2022-08-03T10:47:32.721Z,97774.19
2022-08-03T10:50:01.553Z,97767.72
2022-08-03T10:52:35.108Z,97763.19
2022-08-03T10:55:21.663Z,97762.69
2022-08-03T10:57:52.459Z,97766.38
2022-08-03T11:00:30.266Z,97765.59
2022-08-03T11:03:09.246Z,97762.09
2022-08-03T11:05:39.668Z,97756.75
2022-08-03T11:08:22.391Z,97756.66
2022-08-03T11:10:51.111Z,97755.34
2022-08-03T11:13:20.353Z,97751.91
2022-08-03T11:15:51.220Z,97740.34
2022-08-03T11:18:18.299Z,97743.31
2022-08-03T11:20:50.764Z,97746.81
2022-08-03T11:23:19.888Z,97744.69
2022-08-03T11:26:11.223Z,97745.03
2022-08-03T11:28:41.591Z,97751.53
2022-08-03T11:31:50.357Z,97738.41
2022-08-03T11:34:17.932Z,97744.03
2022-08-03T11:37:21.002Z,97734.75
2022-08-03T11:39:54.737Z,97739.06
2022-08-03T11:42:47.040Z,97740.03
2022-08-03T11:45:15.117Z,97734.25
2022-08-03T11:47:50.907Z,97745.88
2022-08-03T11:50:20.263Z,97747.97
2022-08-03T11:52:48.111Z,97737.25
2022-08-03T11:55:18.959Z,97730.75
2022-08-03T11:59:10.856Z,97736.16
2022-08-03T12:00:34.576Z,97723.00
2022-08-03T12:03:06.221Z,97717.91
2022-08-03T12:05:37.930Z,97722.84
2022-08-03T12:08:07.106Z,97718.25
2022-08-03T12:10:34.752Z,97722.59
2022-08-03T12:13:05.906Z,97727.81
2022-08-03T12:15:54.345Z,97724.88
2022-08-03T12:18:24.059Z,97722.41
2022-08-03T12:20:52.044Z,97726.34
2022-08-03T12:23:19.820Z,97718.78
2022-08-03T12:25:47.522Z,97719.91
2022-08-03T12:28:37.103Z,97716.16
2022-08-03T12:31:07.626Z,97712.00
2022-08-03T12:33:55.946Z,97705.91
2022-08-03T12:36:22.903Z,97711.53
2022-08-03T12:38:56.833Z,97707.03
2022-08-03T12:41:29.481Z,97710.66
2022-08-03T12:43:56.645Z,97708.56
2022-08-03T12:46:31.017Z,97703.88
2022-08-03T12:49:03.760Z,97700.34
2022-08-03T12:51:32.753Z,97700.84
2022-08-03T12:53:59.876Z,97697.19
2022-08-03T12:56:27.612Z,97690.53
2022-08-03T12:58:54.669Z,97692.03
2022-08-03T13:01:27.858Z,97697.06
2022-08-03T13:03:54.999Z,97694.59
2022-08-03T13:06:24.765Z,97694.38
2022-08-03T13:09:03.669Z,97692.66
2022-08-03T13:11:57.279Z,97686.69
2022-08-03T13:14:20.173Z,97697.59
2022-08-03T13:16:48.072Z,97698.91
2022-08-03T13:19:15.549Z,97681.00
2022-08-03T13:21:53.864Z,97692.44
2022-08-03T13:24:32.038Z,97691.78
2022-08-03T13:26:59.121Z,97690.28
2022-08-03T13:29:26.110Z,97678.81
2022-08-03T13:31:53.145Z,97681.69
2022-08-03T13:34:23.530Z,97675.59
2022-08-03T13:37:08.303Z,97678.72
2022-08-03T13:39:58.130Z,97681.19
2022-08-03T13:42:23.244Z,97680.63
2022-08-03T13:44:50.846Z,97672.00
2022-08-03T13:47:17.914Z,97676.13
2022-08-03T13:49:54.303Z,97668.69
2022-08-03T13:52:29.487Z,97668.66
2022-08-03T13:54:56.561Z,97663.09
2022-08-03T13:58:04.030Z,97660.72
2022-08-03T14:00:12.367Z,97655.25
2022-08-03T14:02:39.547Z,97655.53
2022-08-03T14:05:08.260Z,97658.84
2022-08-03T14:07:36.773Z,97654.16
2022-08-03T14:10:03.949Z,97649.13
2022-08-03T14:12:32.014Z,97645.22
2022-08-03T14:15:01.564Z,97652.50
2022-08-03T14:17:42.364Z,97650.75
2022-08-03T14:20:38.555Z,97654.44
2022-08-03T14:23:04.545Z,97639.91
2022-08-03T14:25:43.018Z,97645.66
2022-08-03T14:28:17.352Z,97645.41
2022-08-03T14:30:44.335Z,97644.00
2022-08-03T14:33:11.363Z,97634.38
2022-08-03T14:35:38.609Z,97631.03
2022-08-03T14:38:07.089Z,97629.38
2022-08-03T14:40:34.190Z,97637.50
2022-08-03T14:43:02.423Z,97633.94
2022-08-03T14:45:29.484Z,97629.47
2022-08-03T14:50:29.014Z,97625.41
2022-08-03T14:50:50.196Z,97625.88
2022-08-03T14:53:20.099Z,97617.56
2022-08-03T14:55:51.239Z,97615.13
2022-08-03T14:58:20.784Z,97619.47
2022-08-03T15:00:49.339Z,97607.03
2022-08-03T15:03:17.176Z,97611.41
2022-08-03T15:05:45.339Z,97606.97
2022-08-03T15:08:12.602Z,97601.44
2022-08-03T15:10:44.370Z,97596.97
2022-08-03T15:13:12.370Z,97598.56
2022-08-03T15:15:39.739Z,97593.69
2022-08-03T15:18:07.484Z,97590.94
2022-08-03T15:20:49.897Z,97588.56
2022-08-03T15:23:18.392Z,97588.72
2022-08-03T15:26:29.355Z,97591.34
2022-08-03T15:28:34.926Z,97581.88
2022-08-03T15:31:04.962Z,97590.16
2022-08-03T15:33:32.344Z,97587.66
2022-08-03T15:36:00.432Z,97584.97
2022-08-03T15:38:27.596Z,97577.34
2022-08-03T15:40:56.439Z,97581.47
2022-08-03T15:43:24.058Z,97575.66
2022-08-03T15:46:26.608Z,97575.25
2022-08-03T15:48:39.365Z,97579.44
2022-08-03T15:51:06.772Z,97574.84
2022-08-03T15:53:36.921Z,97576.16
2022-08-03T15:56:15.506Z,97576.00
2022-08-03T15:59:10.239Z,97577.25
2022-08-03T16:01:35.503Z,97574.75
2022-08-03T16:04:02.597Z,97566.59
2022-08-03T16:06:35.119Z,97569.41
2022-08-03T16:09:04.766Z,97568.16
2022-08-03T16:11:33.233Z,97561.28
2022-08-03T16:14:13.179Z,97564.72
2022-08-03T16:16:47.293Z,97561.53
2022-08-03T16:19:14.313Z,97560.75
2022-08-03T16:21:48.690Z,97560.41
2022-08-03T16:24:17.328Z,97560.41
2022-08-03T16:26:48.310Z,97556.34
2022-08-03T16:29:23.364Z,97555.28
2022-08-03T16:31:51.146Z,97548.34
2022-08-03T16:34:18.579Z,97558.31
2022-08-03T16:36:46.003Z,97558.97
2022-08-03T16:39:13.008Z,97551.72
2022-08-03T16:41:54.116Z,97552.13
2022-08-03T16:44:30.670Z,97550.03
2022-08-03T16:46:57.940Z,97552.38
2022-08-03T16:49:54.011Z,97548.41
2022-08-03T16:52:12.853Z,97553.13
2022-08-03T16:54:40.263Z,97550.81
2022-08-03T16:57:07.602Z,97545.72
2022-08-03T16:59:37.183Z,97558.09
2022-08-03T17:02:10.171Z,97555.84
2022-08-03T17:04:40.228Z,97558.59
2022-08-03T17:07:08.880Z,97554.38
2022-08-03T17:09:38.736Z,97560.84
2022-08-03T17:12:07.575Z,97554.91
2022-08-03T17:14:39.925Z,97558.75
2022-08-03T17:17:16.338Z,97560.41
2022-08-03T17:19:47.126Z,97561.19
2022-08-03T17:22:17.768Z,97566.34
2022-08-03T17:24:46.256Z,97560.22
2022-08-03T17:27:23.088Z,97553.75
2022-08-03T17:30:08.450Z,97556.28
2022-08-03T17:32:42.626Z,97554.75
2022-08-03T17:35:20.784Z,97556.56
2022-08-03T17:37:58.145Z,97551.22
2022-08-03T17:40:31.200Z,97551.66
2022-08-03T17:43:00.449Z,97558.25
2022-08-03T17:45:51.991Z,97552.47
2022-08-03T17:48:18.574Z,97558.06
2022-08-03T17:50:52.120Z,97553.31
2022-08-03T17:53:27.101Z,97556.31
2022-08-03T17:56:05.656Z,97556.84
2022-08-03T17:58:53.550Z,97555.31
2022-08-03T18:02:00.316Z,97555.03
2022-08-03T18:04:33.211Z,97555.28
2022-08-03T18:07:11.153Z,97552.97
2022-08-03T18:12:34.667Z,97554.88
2022-08-03T18:15:08.453Z,97560.63
2022-08-03T18:17:55.836Z,97556.00
2022-08-03T18:20:34.369Z,97555.78
2022-08-03T18:23:05.954Z,97559.53
2022-08-03T18:25:42.925Z,97555.78
2022-08-03T18:28:14.734Z,97561.38
2022-08-03T18:30:53.128Z,97555.56
2022-08-03T18:34:19.924Z,97558.59
2022-08-03T18:36:17.878Z,97556.81
2022-08-03T18:38:47.637Z,97561.28
2022-08-03T18:41:31.724Z,97565.72
2022-08-03T18:44:07.796Z,97560.31
2022-08-03T18:46:50.586Z,97572.78
2022-08-03T18:49:29.706Z,97576.88
2022-08-03T18:52:04.393Z,97572.28
2022-08-03T19:00:24.407Z,97567.81
2022-08-03T19:03:09.333Z,97569.16
2022-08-03T19:05:57.810Z,97570.03
2022-08-03T19:08:41.186Z,97575.25
2022-08-03T19:11:11.167Z,97576.47
2022-08-03T19:13:50.346Z,97577.34
2022-08-03T19:16:27.903Z,97576.94
2022-08-03T19:18:58.512Z,97577.41
2022-08-03T19:21:29.100Z,97589.69
2022-08-03T19:24:00.335Z,97578.19
2022-08-03T19:26:31.231Z,97586.88
2022-08-03T19:28:58.902Z,97590.44
2022-08-03T19:31:31.228Z,97592.38
2022-08-03T19:34:03.209Z,97595.16
2022-08-03T19:36:34.249Z,97595.13
2022-08-03T19:39:09.245Z,97599.09
2022-08-03T19:41:42.113Z,97596.72
2022-08-03T19:44:10.459Z,97597.47
2022-08-03T19:46:46.958Z,97603.38
2022-08-03T19:49:16.366Z,97601.72
2022-08-03T19:51:58.580Z,97591.81
2022-08-03T19:54:36.987Z,97591.81
2022-08-03T19:57:17.036Z,97590.53
2022-08-03T19:59:49.847Z,97598.84
2022-08-03T20:02:26.526Z,97587.34
2022-08-03T20:04:55.981Z,97599.97
2022-08-03T20:07:24.895Z,62402.38
2022-08-03T20:09:54.445Z,62402.38
2022-08-03T20:12:27.594Z,62402.38
2022-08-03T20:14:56.952Z,62402.38
2022-08-03T20:17:55.115Z,62402.38
2022-08-03T20:20:11.270Z,62402.38
2022-08-03T20:22:46.156Z,62402.38
2022-08-03T20:25:20.725Z,62402.38
2022-08-03T20:28:07.883Z,62402.38
2022-08-03T20:30:42.544Z,62402.38
2022-08-03T20:33:10.309Z,62402.38
2022-08-03T20:35:37.423Z,62402.38
2022-08-03T20:38:06.872Z,62402.38
2022-08-03T20:40:33.893Z,62402.38
2022-08-03T20:43:01.743Z,62402.38
2022-08-03T20:45:58.466Z,62402.38
2022-08-03T20:48:18.055Z,62402.38
2022-08-03T20:50:49.295Z,62402.38
2022-08-03T20:53:56.781Z,62402.38
2022-08-03T20:56:05.395Z,62402.38
2022-08-03T20:58:38.209Z,62402.38
2022-08-03T21:01:09.188Z,97599.97
2022-08-03T21:03:40.663Z,97599.81
2022-08-03T21:06:35.756Z,97589.81
2022-08-03T21:09:06.921Z,97594.50
2022-08-03T21:11:41.828Z,97588.88
2022-08-03T21:13:00.958Z,97569.59
2022-08-03T21:13:00.963Z,97567.31
2022-08-03T21:13:04.438Z,97556.75
2022-08-03T21:14:15.474Z,97592.28
2022-08-03T21:16:45.707Z,97587.81
2022-08-03T21:19:14.689Z,97590.25
2022-08-03T21:21:44.713Z,97590.78
2022-08-03T21:24:14.086Z,97580.50
2022-08-03T21:26:41.836Z,97584.59
2022-08-03T21:29:11.625Z,97583.31
2022-08-03T21:31:39.755Z,97583.78
2022-08-03T21:34:06.883Z,97575.88
2022-08-03T21:36:36.126Z,97579.41
2022-08-03T21:39:05.761Z,97581.38
2022-08-03T21:41:34.853Z,97579.41
2022-08-03T21:44:02.492Z,97576.47
2022-08-03T21:46:34.473Z,97578.38
2022-08-03T21:50:06.719Z,97577.28
2022-08-03T21:51:54.390Z,97579.50
2022-08-03T21:54:23.292Z,97573.00
2022-08-03T21:56:54.678Z,97576.53
2022-08-03T21:59:26.147Z,97578.41
2022-08-03T22:01:55.466Z,97568.06
2022-08-03T22:04:54.981Z,97574.56
2022-08-03T22:07:14.303Z,97566.34
2022-08-03T22:09:50.991Z,97567.91
2022-08-03T22:12:22.721Z,97568.91
2022-08-03T22:14:50.051Z,97567.19
2022-08-03T22:17:55.462Z,97564.22
2022-08-03T22:20:17.072Z,97565.75
2022-08-03T22:22:55.054Z,97564.09
2022-08-03T22:25:27.419Z,97566.41
2022-08-03T22:27:59.263Z,97560.53
2022-08-03T22:30:26.208Z,97565.16
2022-08-03T22:32:54.896Z,97561.97
2022-08-03T22:35:24.573Z,97570.66
2022-08-03T22:37:54.067Z,97566.25
2022-08-03T22:40:21.580Z,97572.78
2022-08-03T22:42:52.684Z,97567.50
2022-08-03T22:46:07.301Z,97572.59
2022-08-03T22:48:08.774Z,97570.25
2022-08-03T22:50:36.255Z,97571.25
2022-08-03T22:53:03.358Z,97569.69
2022-08-03T22:55:30.437Z,97579.44
2022-08-03T22:57:57.371Z,97584.84
2022-08-03T23:00:25.787Z,97587.47
2022-08-03T23:02:55.629Z,97580.16
2022-08-03T23:06:02.592Z,97579.97
2022-08-03T23:08:14.637Z,97581.84
2022-08-03T23:10:46.730Z,97577.94
2022-08-03T23:13:16.411Z,97581.91
2022-08-03T23:15:49.711Z,97584.13
2022-08-03T23:18:19.023Z,97588.59
2022-08-03T23:20:49.308Z,97590.56
2022-08-03T23:23:19.938Z,97580.00
2022-08-03T23:25:49.704Z,97588.97
2022-08-03T23:28:17.484Z,97587.28
2022-08-03T23:30:47.426Z,97578.53
2022-08-03T23:33:16.438Z,97580.03
2022-08-03T23:36:28.725Z,97584.28
2022-08-03T23:38:47.454Z,97588.19
2022-08-03T23:41:16.683Z,97588.47
2022-08-03T23:43:53.604Z,62402.38
2022-08-03T23:46:24.083Z,62402.38
2022-08-03T23:48:51.446Z,97588.47
2022-08-03T23:51:32.393Z,97586.00
2022-08-03T23:54:06.602Z,97579.53
2022-08-03T23:56:41.628Z,97578.63
2022-08-03T23:59:14.725Z,97585.13
